Time;durP1;ratioP1;P1;durP2;ratioP2;P2;SDS_P1;SDS_P2;PMS_P1;PMS_P2;Temp;Humidity;BMP_temperature;BMP_pressure;BME280_temperature;BME280_humidity;BME280_pressure;Samples;Min_cycle;Max_cycle;Signal;HPM_P1;HPM_P2
2021/03/13 00:01:50;;;;;;;9.30;2.87;;;;;;;24.20;36.08;99377.94;4485277;32;34072;-55
2021/03/13 00:04:18;;;;;;;5.15;2.40;;;;;;;24.19;36.14;99377.13;4484966;32;33906;-60
2021/03/13 00:06:45;;;;;;;5.82;2.70;;;;;;;24.17;36.19;99383.91;4485046;32;35139;-50
2021/03/13 00:09:12;;;;;;;8.45;2.37;;;;;;;24.17;36.24;99384.72;4484976;32;34473;-52
2021/03/13 00:11:39;;;;;;;12.95;2.83;;;;;;;24.16;36.31;99383.06;4484967;32;33414;-63
2021/03/13 00:14:06;;;;;;;6.62;2.47;;;;;;;24.17;36.29;99392.06;4484908;32;33622;-52
2021/03/13 00:16:33;;;;;;;7.85;2.53;;;;;;;24.15;36.31;99386.00;4485040;32;33797;-61
2021/03/13 00:19:00;;;;;;;9.10;2.75;;;;;;;24.13;36.34;99386.28;4485026;32;33545;-59
2021/03/13 00:21:27;;;;;;;8.75;2.47;;;;;;;24.12;36.36;99390.06;4484909;32;34719;-52
2021/03/13 00:23:55;;;;;;;9.43;3.03;;;;;;;24.12;36.38;99392.78;4485069;32;34545;-48
2021/03/13 00:26:22;;;;;;;8.23;2.55;;;;;;;24.12;36.50;99398.25;4485034;32;33471;-61
2021/03/13 00:28:49;;;;;;;9.23;2.83;;;;;;;24.11;36.41;99402.06;4484880;32;34132;-54
2021/03/13 00:31:16;;;;;;;7.82;2.70;;;;;;;24.10;36.48;99402.28;4485100;32;33596;-52
2021/03/13 00:33:43;;;;;;;12.73;3.45;;;;;;;24.08;36.46;99386.16;4484948;32;33738;-61
2021/03/13 00:36:11;;;;;;;12.63;2.53;;;;;;;24.06;36.40;99382.88;4484906;32;33864;-53
2021/03/13 00:38:38;;;;;;;6.50;2.47;;;;;;;24.06;36.49;99393.78;4484704;32;33771;-60
2021/03/13 00:41:05;;;;;;;8.35;2.55;;;;;;;24.06;36.48;99385.59;4484823;32;33984;-52
2021/03/13 00:43:32;;;;;;;7.78;3.22;;;;;;;24.05;36.53;99381.19;4484856;32;34588;-51
2021/03/13 00:46:00;;;;;;;7.45;2.60;;;;;;;24.03;36.63;99380.59;4484800;32;33782;-59
2021/03/13 00:48:27;;;;;;;7.70;2.50;;;;;;;24.04;36.68;99382.25;4484936;32;34577;-47
2021/03/13 00:50:54;;;;;;;6.60;2.20;;;;;;;24.03;36.65;99374.34;4485138;32;33238;-51
2021/03/13 00:53:21;;;;;;;12.80;3.12;;;;;;;24.02;36.63;99376.22;4484638;32;34376;-63
2021/03/13 00:55:49;;;;;;;9.88;2.72;;;;;;;24.03;36.77;99371.62;4484906;32;33872;-53
2021/03/13 00:58:17;;;;;;;4.90;2.30;;;;;;;24.01;36.83;99377.28;4484825;32;33848;-56
2021/03/13 01:00:45;;;;;;;10.45;2.83;;;;;;;24.00;36.84;99374.81;4484797;32;33274;-49
2021/03/13 01:03:13;;;;;;;6.78;2.42;;;;;;;23.99;36.84;99368.53;4484557;32;33815;-55
2021/03/13 01:05:41;;;;;;;7.55;2.50;;;;;;;23.99;36.85;99371.25;4484235;32;33901;-57
2021/03/13 01:08:08;;;;;;;6.68;2.50;;;;;;;23.98;36.81;99371.50;4485053;32;33770;-57
2021/03/13 01:10:47;;;;;;;10.05;3.05;;;;;;;23.97;36.85;99367.97;4484663;32;33467;-53
2021/03/13 01:13:15;;;;;;;8.50;2.22;;;;;;;23.98;36.89;99372.34;4468847;32;33708;-56
2021/03/13 01:15:43;;;;;;;8.10;2.65;;;;;;;23.97;36.90;99372.56;4469263;32;33961;-48
2021/03/13 01:18:13;;;;;;;7.07;2.33;;;;;;;23.95;36.89;99364.62;4469155;32;33940;-48
2021/03/13 01:20:41;;;;;;;5.97;2.50;;;;;;;23.94;36.93;99365.69;4468712;32;34496;-61
2021/03/13 01:23:09;;;;;;;6.60;2.40;;;;;;;23.94;36.82;99373.88;4468978;32;34557;-48
2021/03/13 01:25:36;;;;;;;7.70;2.50;;;;;;;23.92;36.84;99368.69;4469165;32;33812;-63
2021/03/13 01:28:04;;;;;;;7.10;3.00;;;;;;;23.92;36.92;99365.94;4470990;32;33766;-54
2021/03/13 01:30:31;;;;;;;5.80;2.40;;;;;;;23.91;37.01;99364.28;4484628;32;33251;-53
2021/03/13 01:32:59;;;;;;;4.20;2.00;;;;;;;23.91;37.01;99364.28;4484432;32;33720;-64
2021/03/13 01:35:26;;;;;;;6.00;2.00;;;;;;;23.90;36.91;99368.06;4484741;32;33804;-50
2021/03/13 01:37:53;;;;;;;5.03;2.12;;;;;;;23.90;36.98;99369.97;4484515;32;33901;-62
2021/03/13 01:40:21;;;;;;;6.22;2.28;;;;;;;23.88;37.00;99363.94;4484404;32;34298;-59
2021/03/13 01:42:48;;;;;;;6.62;2.60;;;;;;;23.88;37.07;99370.22;4484588;32;33618;-62
2021/03/13 01:45:19;;;;;;;5.20;2.20;;;;;;;23.87;36.96;99371.25;4470352;32;33831;-58
2021/03/13 01:47:46;;;;;;;6.50;2.15;;;;;;;23.87;37.05;99367.72;4484394;32;35302;-60
2021/03/13 01:50:17;;;;;;;6.78;2.37;;;;;;;23.87;37.21;99371.25;4470739;32;33982;-56
2021/03/13 01:52:47;;;;;;;5.43;2.28;;;;;;;23.87;37.08;99367.72;4484388;32;33550;-50
2021/03/13 01:55:14;;;;;;;3.55;1.90;;;;;;;23.87;37.13;99373.16;4470376;32;34153;-54
2021/03/13 01:57:42;;;;;;;9.52;2.28;;;;;;;23.85;37.09;99359.78;4484590;32;33862;-58
2021/03/13 02:00:17;;;;;;;6.85;2.42;;;;;;;23.85;37.20;99361.69;4484631;32;33301;-51
2021/03/13 02:02:47;;;;;;;7.12;2.30;;;;;;;23.86;37.38;99366.06;4484080;32;33758;-55
2021/03/13 02:05:32;;;;;;;6.47;2.40;;;;;;;23.84;37.35;99357.31;4484629;32;33952;-60
2021/03/13 02:08:16;;;;;;;7.70;2.53;;;;;;;23.83;37.29;99359.22;4484351;32;35330;-55
2021/03/13 02:11:12;;;;;;;6.90;2.17;;;;;;;23.83;37.22;99351.03;4454834;32;94958;-55
2021/03/13 02:14:06;;;;;;;5.32;2.50;;;;;;;23.83;37.15;99353.78;4477581;32;33715;-59
2021/03/13 02:16:33;;;;;;;8.05;2.25;;;;;;;23.84;37.05;99357.31;4470020;32;34599;-53
2021/03/13 02:19:29;;;;;;;5.68;2.28;;;;;;;23.80;37.26;99359.69;4484015;31;33768;-60
2021/03/13 02:22:01;;;;;;;7.07;2.33;;;;;;;23.82;37.20;99360.25;4471428;32;33298;-60
2021/03/13 02:24:50;;;;;;;9.07;2.50;;;;;;;23.79;37.27;99365.38;4470535;32;33740;-48
2021/03/13 02:27:22;;;;;;;6.32;2.15;;;;;;;23.78;37.31;99369.16;4452397;32;33883;-56
2021/03/13 02:30:00;;;;;;;7.85;2.22;;;;;;;23.78;37.25;99363.69;4484492;32;33777;-57
2021/03/13 02:32:47;;;;;;;7.05;3.17;;;;;;;23.77;37.37;99368.31;4470977;32;34967;-57
2021/03/13 02:35:20;;;;;;;11.25;2.60;;;;;;;23.76;37.18;99377.56;4470534;32;33828;-61
2021/03/13 02:37:50;;;;;;;4.80;2.00;;;;;;;23.73;37.36;99378.03;4484178;32;34490;-56
2021/03/13 02:40:19;;;;;;;6.60;2.47;;;;;;;23.73;37.32;99386.22;4483945;32;33788;-54
2021/03/13 02:42:52;;;;;;;3.97;2.00;;;;;;;23.73;37.33;99382.66;4469767;32;34061;-60
2021/03/13 02:45:21;;;;;;;6.70;2.28;;;;;;;23.72;37.32;99391.91;4457424;32;33769;-52
2021/03/13 02:47:49;;;;;;;5.45;2.22;;;;;;;23.73;37.33;99393.56;4484178;32;34921;-52
2021/03/13 02:50:16;;;;;;;10.60;2.40;;;;;;;23.72;37.33;99390.00;4470101;32;33579;-60
2021/03/13 02:52:45;;;;;;;12.30;2.42;;;;;;;23.72;37.29;99391.91;4484082;32;33352;-51
2021/03/13 02:55:13;;;;;;;5.45;2.10;;;;;;;23.71;37.41;99391.09;4469775;32;34356;-57
2021/03/13 02:57:42;;;;;;;5.93;2.33;;;;;;;23.70;37.32;99392.16;4456990;32;33819;-49
2021/03/13 03:00:10;;;;;;;7.87;2.20;;;;;;;23.69;37.34;99385.06;4457158;32;33973;-62
2021/03/13 03:02:37;;;;;;;5.37;2.37;;;;;;;23.68;37.32;99389.66;4469681;32;33131;-50
2021/03/13 03:05:05;;;;;;;6.22;2.33;;;;;;;23.68;37.30;99400.53;4457248;32;33865;-54
2021/03/13 03:07:33;;;;;;;5.78;1.92;;;;;;;23.67;37.30;99400.78;4470050;32;32989;-52
2021/03/13 03:10:01;;;;;;;5.62;2.30;;;;;;;23.67;37.34;99398.06;4469758;32;34547;-60
2021/03/13 03:12:29;;;;;;;4.37;2.00;;;;;;;23.66;37.31;99389.06;4484158;32;33419;-47
2021/03/13 03:14:57;;;;;;;5.60;2.10;;;;;;;23.65;37.30;99406.50;4456874;32;33677;-54
2021/03/13 03:17:25;;;;;;;6.18;2.22;;;;;;;23.64;37.25;99402.12;4456931;32;34036;-51
2021/03/13 03:19:54;;;;;;;7.25;2.15;;;;;;;23.63;37.44;99397.69;4483837;31;34319;-59
2021/03/13 03:22:23;;;;;;;5.78;2.97;;;;;;;23.64;37.49;99402.12;4470101;32;34592;-56
2021/03/13 03:24:53;;;;;;;5.75;1.95;;;;;;;23.63;37.29;99397.69;4469689;32;33745;-56
2021/03/13 03:27:20;;;;;;;5.20;2.08;;;;;;;23.64;37.41;99401.25;4455956;32;33923;-51
2021/03/13 03:29:48;;;;;;;7.93;2.40;;;;;;;23.63;37.40;99396.84;4483640;32;33794;-61
2021/03/13 03:32:28;;;;;;;3.97;1.70;;;;;;;23.63;37.45;99402.28;4459647;32;34014;-60
2021/03/13 03:34:55;;;;;;;5.40;2.03;;;;;;;23.64;37.41;99409.44;4483629;32;34830;-63
2021/03/13 03:37:23;;;;;;;6.30;1.95;;;;;;;23.62;37.42;99409.66;4483744;32;33703;-52
2021/03/13 03:39:50;;;;;;;8.52;2.60;;;;;;;23.60;37.46;99405.50;4483337;32;34397;-54
2021/03/13 03:42:19;;;;;;;6.40;2.47;;;;;;;23.59;37.52;99412.84;4483790;32;34261;-46
2021/03/13 03:44:46;;;;;;;4.80;2.00;;;;;;;23.60;37.48;99413.69;4453498;32;34475;-56
2021/03/13 03:47:15;;;;;;;3.87;1.67;;;;;;;23.59;37.46;99410.09;4467985;32;35358;-53
2021/03/13 03:49:43;;;;;;;7.78;2.08;;;;;;;23.59;37.46;99409.28;4453512;32;33629;-51
2021/03/13 03:52:11;;;;;;;5.35;1.77;;;;;;;23.59;37.45;99414.72;4441036;32;34915;-53
2021/03/13 03:54:38;;;;;;;6.47;2.00;;;;;;;23.58;37.44;99416.63;4453330;32;33810;-49
2021/03/13 03:57:08;;;;;;;5.03;2.00;;;;;;;23.57;37.45;99422.31;4453792;32;33623;-49
2021/03/13 03:59:39;;;;;;;5.10;2.28;;;;;;;23.58;37.43;99421.25;4453573;32;33733;-54
2021/03/13 04:02:07;;;;;;;3.58;1.62;;;;;;;23.57;37.45;99419.59;4462471;32;33252;-54
2021/03/13 04:04:34;;;;;;;5.75;2.17;;;;;;;23.56;37.42;99410.59;4469052;32;33844;-58
2021/03/13 04:07:01;;;;;;;5.60;2.10;;;;;;;23.55;37.42;99419.00;4455871;32;33766;-56
2021/03/13 04:09:29;;;;;;;4.05;1.85;;;;;;;23.54;37.41;99412.72;4456134;32;34694;-52
2021/03/13 04:11:56;;;;;;;4.47;1.98;;;;;;;23.55;37.46;99419.00;4468733;32;33401;-65
2021/03/13 04:14:23;;;;;;;5.18;2.17;;;;;;;23.54;37.42;99417.34;4468396;32;34491;-55
2021/03/13 04:16:50;;;;;;;4.00;1.62;;;;;;;23.54;37.48;99430.94;4455806;32;34990;-52
2021/03/13 04:19:18;;;;;;;5.65;1.77;;;;;;;23.52;37.51;99428.47;4482607;31;33433;-59
2021/03/13 04:21:45;;;;;;;6.20;2.10;;;;;;;23.52;37.57;99420.31;4483097;32;33258;-49
2021/03/13 04:24:12;;;;;;;5.68;1.95;;;;;;;23.51;37.60;99424.09;4456071;32;33810;-57
2021/03/13 04:26:41;;;;;;;6.82;1.80;;;;;;;23.52;37.61;99419.47;4482860;32;33819;-55
2021/03/13 04:29:08;;;;;;;4.55;1.70;;;;;;;23.51;37.60;99415.09;4468677;32;33765;-59
2021/03/13 04:31:35;;;;;;;5.00;1.87;;;;;;;23.50;37.59;99417.00;4482824;32;33293;-63
2021/03/13 04:34:03;;;;;;;6.70;2.08;;;;;;;23.49;37.52;99423.50;4468494;32;33807;-55
2021/03/13 04:36:32;;;;;;;4.40;2.00;;;;;;;23.48;37.52;99421.84;4482530;32;34465;-62
2021/03/13 04:39:01;;;;;;;5.97;2.03;;;;;;;23.49;37.55;99412.59;4483661;32;33979;-56
2021/03/13 04:41:29;;;;;;;6.77;1.87;;;;;;;23.47;37.55;99414.75;4470620;32;33507;-52
2021/03/13 04:43:56;;;;;;;6.93;2.17;;;;;;;23.48;37.47;99413.66;4457974;32;33881;-55
2021/03/13 04:46:24;;;;;;;7.65;2.83;;;;;;;23.48;37.61;99423.72;4457837;32;33824;-66
2021/03/13 04:48:51;;;;;;;7.93;1.90;;;;;;;23.47;37.79;99416.63;4457817;32;33890;-51
2021/03/13 04:51:18;;;;;;;9.27;2.37;;;;;;;23.48;37.75;99423.72;4470734;32;34359;-58
2021/03/13 04:53:46;;;;;;;5.35;1.80;;;;;;;23.47;37.74;99427.53;4484702;32;34582;-60
2021/03/13 04:56:13;;;;;;;8.80;2.30;;;;;;;23.46;37.77;99428.59;4484604;32;33884;-63
2021/03/13 04:58:40;;;;;;;3.97;1.50;;;;;;;23.47;37.76;99422.09;4484784;32;33936;-59
2021/03/13 05:01:07;;;;;;;4.80;2.03;;;;;;;23.46;37.81;99431.31;4484816;32;33306;-52
2021/03/13 05:03:39;;;;;;;6.62;2.20;;;;;;;23.45;37.66;99426.91;4484541;32;33820;-53
2021/03/13 05:06:07;;;;;;;6.10;2.10;;;;;;;23.45;37.73;99430.47;4484779;32;33855;-62
2021/03/13 05:08:34;;;;;;;4.97;1.85;;;;;;;23.45;37.70;99427.75;4485088;32;33505;-56
2021/03/13 05:11:01;;;;;;;5.93;2.05;;;;;;;23.44;37.74;99428.81;4484399;32;33087;-54
2021/03/13 05:13:28;;;;;;;6.57;2.10;;;;;;;23.43;37.73;99425.28;4469026;32;34353;-68
2021/03/13 05:15:55;;;;;;;6.95;2.28;;;;;;;23.42;37.82;99428.22;4484722;32;34038;-68
2021/03/13 05:18:22;;;;;;;9.25;1.95;;;;;;;23.42;37.83;99428.22;4484352;32;35298;-68
2021/03/13 05:20:49;;;;;;;6.93;2.20;;;;;;;23.41;37.67;99432.03;4480619;31;33444;-65
2021/03/13 05:23:16;;;;;;;6.80;2.40;;;;;;;23.42;37.77;99425.50;4481191;31;33752;-54
2021/03/13 05:25:44;;;;;;;11.32;2.37;;;;;;;23.40;37.84;99419.47;4484255;32;33511;-62
2021/03/13 05:28:12;;;;;;;12.05;2.10;;;;;;;23.40;37.83;99420.28;4484663;31;33522;-63
2021/03/13 05:30:40;;;;;;;7.87;2.15;;;;;;;23.40;37.87;99412.13;4493835;31;34198;-58
2021/03/13 05:33:07;;;;;;;7.97;2.10;;;;;;;23.40;37.86;99414.00;4468729;32;33979;-55
2021/03/13 05:35:39;;;;;;;6.30;2.37;;;;;;;23.39;37.84;99421.34;4468816;32;34655;-58
2021/03/13 05:38:07;;;;;;;6.95;2.12;;;;;;;23.40;37.92;99422.19;4468876;32;33766;-54
2021/03/13 05:40:34;;;;;;;5.18;1.98;;;;;;;23.40;37.94;99422.19;4471430;31;33518;-54
2021/03/13 05:43:01;;;;;;;8.68;2.20;;;;;;;23.39;37.78;99425.97;4497804;31;33885;-56
2021/03/13 05:45:30;;;;;;;8.88;2.03;;;;;;;23.38;37.90;99422.44;4484448;32;33971;-60
2021/03/13 05:47:58;;;;;;;8.43;2.33;;;;;;;23.38;37.85;99413.44;4484379;32;33789;-58
2021/03/13 05:50:25;;;;;;;6.40;2.03;;;;;;;23.37;37.86;99412.59;4469756;32;34264;-57
2021/03/13 05:52:56;;;;;;;14.75;2.28;;;;;;;23.36;37.92;99423.72;4457262;32;33816;-55
2021/03/13 05:55:24;;;;;;;14.82;2.60;;;;;;;23.37;37.92;99433.56;4484126;32;34655;-55
2021/03/13 05:57:51;;;;;;;7.05;2.58;;;;;;;23.36;37.86;99432.72;4484469;32;33829;-61
2021/03/13 06:00:19;;;;;;;7.18;2.10;;;;;;;23.36;37.80;99426.44;4484245;32;33309;-55
2021/03/13 06:02:46;;;;;;;8.13;1.90;;;;;;;23.36;37.78;99427.28;4484265;32;33856;-62
2021/03/13 06:05:14;;;;;;;5.62;1.87;;;;;;;23.35;37.80;99414.72;4484351;32;33488;-55
2021/03/13 06:07:42;;;;;;;9.10;2.12;;;;;;;23.32;37.81;99412.47;4484480;32;34524;-61
2021/03/13 06:10:13;;;;;;;11.93;2.37;;;;;;;23.34;37.52;99420.41;4484098;32;34099;-55
2021/03/13 06:12:41;;;;;;;10.10;2.03;;;;;;;23.35;37.64;99427.50;4484278;32;34774;-51
2021/03/13 06:15:10;;;;;;;7.00;2.10;;;;;;;23.34;37.54;99418.50;4484161;32;33813;-59
2021/03/13 06:17:56;;;;;;;10.77;2.33;;;;;;;23.34;37.52;99417.69;4483960;32;34135;-55
2021/03/13 06:20:31;;;;;;;9.85;2.72;;;;;;;23.36;37.36;99421.00;4484042;31;33620;-60
2021/03/13 06:23:10;;;;;;;9.80;2.40;;;;;;;23.34;37.49;99425.84;4484213;32;33799;-47
2021/03/13 06:25:37;;;;;;;6.53;1.80;;;;;;;23.33;37.48;99427.75;4469838;32;33963;-52
2021/03/13 06:28:05;;;;;;;6.28;1.98;;;;;;;23.32;37.42;99442.44;4484154;32;34471;-52
2021/03/13 06:30:34;;;;;;;6.80;2.00;;;;;;;23.31;37.48;99448.91;4484127;32;34361;-59
2021/03/13 06:33:21;;;;;;;9.85;2.03;;;;;;;23.31;37.47;99435.31;4484296;32;33772;-56
2021/03/13 06:35:49;;;;;;;8.57;2.40;;;;;;;23.30;37.47;99443.72;4483878;32;34439;-60
2021/03/13 06:38:18;;;;;;;5.78;2.10;;;;;;;23.30;37.44;99432.81;4484122;32;33979;-49
2021/03/13 06:40:45;;;;;;;6.28;2.05;;;;;;;23.29;37.46;99439.34;4484062;32;34697;-57
2021/03/13 06:43:21;;;;;;;6.18;1.67;;;;;;;23.29;37.40;99450.22;4483891;32;35353;-58
2021/03/13 06:45:55;;;;;;;7.25;1.98;;;;;;;23.29;37.48;99448.34;4484271;32;33933;-59
2021/03/13 06:48:30;;;;;;;6.22;2.03;;;;;;;23.29;37.47;99442.06;4484210;32;33469;-62
2021/03/13 06:51:16;;;;;;;7.35;2.28;;;;;;;23.28;37.46;99445.84;4483753;32;34069;-54
2021/03/13 06:53:43;;;;;;;6.78;1.98;;;;;;;23.28;37.45;99446.69;4483867;32;34830;-49
2021/03/13 06:56:11;;;;;;;7.60;2.10;;;;;;;23.26;37.50;99446.06;4483721;32;33874;-57
2021/03/13 06:58:41;;;;;;;8.40;1.98;;;;;;;23.25;37.61;99458.03;4483960;32;33814;-52
2021/03/13 07:01:09;;;;;;;5.25;1.80;;;;;;;23.26;37.56;99467.03;4469611;32;33313;-52
2021/03/13 07:03:50;;;;;;;11.02;2.08;;;;;;;23.26;37.60;99467.03;4482823;32;33869;-54
2021/03/13 07:06:18;;;;;;;6.62;2.17;;;;;;;23.28;37.58;99473.06;4483833;32;33485;-54
2021/03/13 07:08:46;;;;;;;5.45;1.83;;;;;;;23.26;37.64;99476.00;4480582;32;34081;-52
2021/03/13 07:11:14;;;;;;;7.35;1.70;;;;;;;23.25;37.52;99477.09;4472351;32;33274;-50
2021/03/13 07:13:43;;;;;;;8.43;2.17;;;;;;;23.26;37.59;99486.91;4477366;31;33849;-58
2021/03/13 07:16:30;;;;;;;6.53;1.73;;;;;;;23.26;37.58;99488.78;4483269;32;34826;-60
2021/03/13 07:19:02;;;;;;;6.32;2.20;;;;;;;23.27;37.60;99485.00;4483675;32;34670;-52
2021/03/13 07:21:30;;;;;;;7.37;2.10;;;;;;;23.26;37.56;99486.06;4483622;32;32994;-52
2021/03/13 07:24:05;;;;;;;5.18;1.77;;;;;;;23.25;37.62;99482.53;4483878;32;33731;-64
2021/03/13 07:26:35;;;;;;;7.60;1.87;;;;;;;23.24;37.61;99483.59;4483670;32;33587;-65
2021/03/13 07:29:04;;;;;;;10.35;1.98;;;;;;;23.24;37.64;99478.16;4483476;32;33670;-58
2021/03/13 07:31:36;;;;;;;6.12;2.67;;;;;;;23.25;37.57;99473.53;4482378;32;34021;-49
2021/03/13 07:34:05;;;;;;;7.00;2.05;;;;;;;23.25;37.59;99477.09;4483449;32;33747;-61
2021/03/13 07:36:36;;;;;;;5.03;1.90;;;;;;;23.25;37.46;99478.97;4483423;32;34786;-53
2021/03/13 07:39:10;;;;;;;3.83;1.80;;;;;;;23.26;37.40;99467.03;4482232;32;33759;-60
2021/03/13 07:41:38;;;;;;;5.40;1.70;;;;;;;23.25;37.33;99471.62;4483212;32;33274;-57
2021/03/13 07:44:05;;;;;;;6.10;2.05;;;;;;;23.26;37.32;99472.47;4483445;32;33813;-62
2021/03/13 07:46:32;;;;;;;6.65;2.10;;;;;;;23.25;37.49;99471.62;4483356;32;34627;-50
2021/03/13 07:49:00;;;;;;;4.80;1.55;;;;;;;23.26;37.59;99472.47;4483218;32;33755;-64
2021/03/13 07:51:27;;;;;;;5.70;1.92;;;;;;;23.25;37.53;99479.81;4482116;32;34423;-55
2021/03/13 07:53:54;;;;;;;5.35;1.87;;;;;;;23.26;37.52;99477.91;4483255;32;33874;-53
2021/03/13 07:56:22;;;;;;;8.95;1.83;;;;;;;23.26;37.63;99488.78;4468805;32;33512;-60
2021/03/13 07:58:49;;;;;;;9.05;1.92;;;;;;;23.25;37.48;99482.53;4468972;32;34861;-52
2021/03/13 08:01:16;;;;;;;12.05;2.50;;;;;;;23.25;37.55;99485.25;4483151;32;34114;-47
2021/03/13 08:03:45;;;;;;;8.10;2.12;;;;;;;23.26;37.50;99475.19;4481633;32;33883;-54
2021/03/13 08:06:14;;;;;;;7.03;1.80;;;;;;;23.25;37.50;99471.62;4483415;32;33734;-50
2021/03/13 08:08:45;;;;;;;8.75;2.10;;;;;;;23.27;37.42;99471.41;4482847;32;33808;-55
2021/03/13 08:11:16;;;;;;;8.32;2.05;;;;;;;23.25;37.62;99478.97;4482811;32;33353;-48
2021/03/13 08:13:43;;;;;;;7.07;2.30;;;;;;;23.25;37.64;99478.97;4483864;32;33776;-58
2021/03/13 08:16:11;;;;;;;18.10;2.62;;;;;;;23.23;37.73;99478.38;4484996;32;33898;-54
2021/03/13 08:18:57;;;;;;;8.20;2.03;;;;;;;23.23;37.43;99473.78;4484996;32;34287;-60
2021/03/13 08:21:24;;;;;;;18.75;2.10;;;;;;;23.26;37.41;99472.47;4485256;32;34038;-50
2021/03/13 08:23:52;;;;;;;14.55;2.45;;;;;;;23.25;37.42;99473.53;4484840;32;34409;-61
2021/03/13 08:26:20;;;;;;;12.77;2.72;;;;;;;23.14;36.85;99470.56;4484925;32;33978;-52
2021/03/13 08:28:48;;;;;;;11.15;2.80;;;;;;;23.15;36.26;99465.94;4484997;32;33863;-65
2021/03/13 08:31:33;;;;;;;11.27;2.58;;;;;;;23.21;36.14;99459.56;4484931;32;34272;-50
2021/03/13 08:34:07;;;;;;;18.73;3.75;;;;;;;23.34;35.82;99459.34;4484887;32;33746;-67
2021/03/13 08:36:47;;;;;;;14.93;2.15;;;;;;;23.35;35.46;99460.16;4484765;32;33811;-59
2021/03/13 08:39:17;;;;;;;9.48;2.42;;;;;;;23.45;34.62;99454.16;4487445;31;34968;-56
2021/03/13 08:41:44;;;;;;;9.35;2.67;;;;;;;23.58;34.32;99453.94;4488810;31;34616;-56
2021/03/13 08:44:26;;;;;;;12.90;2.42;;;;;;;23.70;34.20;99452.09;4482778;32;33879;-66
2021/03/13 08:46:53;;;;;;;12.75;3.42;;;;;;;23.81;34.30;99444.97;4483822;32;34020;-50
2021/03/13 08:49:29;;;;;;;15.35;2.75;;;;;;;23.92;34.37;99439.53;4484607;32;33930;-58
2021/03/13 08:52:05;;;;;;;10.50;2.30;;;;;;;24.02;34.53;99443.53;4484443;32;33681;-64
2021/03/13 08:54:37;;;;;;;10.13;2.28;;;;;;;24.11;34.68;99434.75;4484225;32;34442;-64
2021/03/13 08:57:04;;;;;;;13.93;2.83;;;;;;;24.17;34.67;99430.25;4483072;32;33653;-67
2021/03/13 08:59:32;;;;;;;7.87;1.98;;;;;;;24.22;34.71;99429.50;4484395;32;34421;-61
2021/03/13 09:02:06;;;;;;;11.10;2.72;;;;;;;24.27;34.83;99437.78;4484691;32;34114;-68
2021/03/13 09:04:34;;;;;;;14.20;2.28;;;;;;;24.31;34.89;99428.06;4484437;32;33897;-67
2021/03/13 09:07:02;;;;;;;10.38;2.00;;;;;;;24.32;34.88;99438.72;4484510;32;33643;-67
2021/03/13 09:09:30;;;;;;;13.35;2.35;;;;;;;24.34;34.95;99435.75;4484255;32;33654;-64
2021/03/13 09:12:03;;;;;;;13.38;2.45;;;;;;;24.36;35.00;99436.34;4483230;32;34329;-68
2021/03/13 09:14:30;;;;;;;10.73;1.92;;;;;;;24.37;34.98;99438.03;4484311;32;33790;-69
2021/03/13 09:16:57;;;;;;;8.07;2.22;;;;;;;24.38;34.90;99442.41;4484660;32;34719;-66
2021/03/13 09:19:25;;;;;;;7.43;2.10;;;;;;;24.38;34.92;99429.59;4484203;31;34588;-63
2021/03/13 09:21:53;;;;;;;12.65;2.55;;;;;;;24.38;34.87;99435.06;4484827;32;33321;-68
2021/03/13 09:24:22;;;;;;;14.65;2.25;;;;;;;24.38;34.87;99435.06;4483851;32;33895;-67
2021/03/13 09:26:54;;;;;;;;;;;;;;;24.37;34.92;99433.41;4484273;32;33770;-68
2021/03/13 09:29:31;;;;;;;7.65;2.05;;;;;;;24.48;34.80;99420.81;4484523;32;34152;-68
2021/03/13 09:32:02;;;;;;;9.65;2.30;;;;;;;24.40;35.05;99432.09;4484062;32;33064;-67
2021/03/13 09:34:34;;;;;;;6.60;2.05;;;;;;;24.36;35.12;99426.31;4484222;32;33828;-68
2021/03/13 09:37:23;;;;;;;7.00;2.20;;;;;;;24.32;35.21;99419.63;4484280;32;33465;-66
2021/03/13 09:39:51;;;;;;;12.65;2.30;;;;;;;24.32;35.18;99427.81;4484214;32;34005;-62
2021/03/13 09:42:19;;;;;;;11.70;2.10;;;;;;;24.29;35.47;99425.56;4484198;32;33532;-68
2021/03/13 09:44:50;;;;;;;8.55;2.45;;;;;;;24.27;35.57;99422.25;4484192;32;34554;-69
2021/03/13 09:47:38;;;;;;;8.98;1.85;;;;;;;24.25;35.52;99426.28;4484319;32;34975;-58
2021/03/13 09:50:16;;;;;;;12.77;2.22;;;;;;;24.25;35.47;99418.97;4483021;32;34683;-67
2021/03/13 09:52:45;;;;;;;11.07;2.67;;;;;;;24.23;35.58;99421.09;4478829;32;33351;-65
2021/03/13 09:55:25;;;;;;;10.80;2.12;;;;;;;24.19;35.45;99412.56;4487101;31;33920;-64
2021/03/13 09:57:54;;;;;;;7.65;1.90;;;;;;;24.20;35.51;99416.09;4484130;32;34620;-68
2021/03/13 10:00:26;;;;;;;7.35;2.00;;;;;;;24.17;35.57;99413.87;4484117;32;33870;-64
2021/03/13 10:02:55;;;;;;;5.68;1.62;;;;;;;24.18;35.66;99412.81;4475314;32;32997;-63
2021/03/13 10:05:23;;;;;;;9.02;2.15;;;;;;;24.15;35.76;99405.09;4484260;32;34701;-60
2021/03/13 10:07:51;;;;;;;7.07;1.55;;;;;;;24.14;35.76;99409.72;4482784;32;33997;-69
2021/03/13 10:10:25;;;;;;;8.60;2.00;;;;;;;24.12;35.83;99406.44;4483988;32;33622;-65
2021/03/13 10:12:54;;;;;;;10.05;2.20;;;;;;;24.11;35.85;99396.59;4483843;32;33415;-65
2021/03/13 10:15:25;;;;;;;7.60;1.87;;;;;;;24.08;35.86;99396.25;4483928;32;33936;-63
2021/03/13 10:17:53;;;;;;;5.87;1.77;;;;;;;24.08;35.92;99396.25;4484174;32;33664;-69
2021/03/13 10:20:21;;;;;;;7.35;2.00;;;;;;;24.07;35.95;99392.69;4484101;32;33900;-65
2021/03/13 10:22:49;;;;;;;11.35;2.37;;;;;;;24.05;36.02;99391.25;4483602;32;34358;-67
2021/03/13 10:25:17;;;;;;;7.47;2.00;;;;;;;24.05;36.06;99391.25;4482491;32;33794;-65
2021/03/13 10:27:46;;;;;;;5.75;1.70;;;;;;;24.03;36.09;99391.50;4483696;32;34550;-50
2021/03/13 10:30:13;;;;;;;7.87;1.70;;;;;;;24.03;36.10;99374.34;4483861;32;34045;-54
2021/03/13 10:32:46;;;;;;;8.75;1.98;;;;;;;24.00;36.15;99378.34;4483723;32;33178;-67
2021/03/13 10:35:17;;;;;;;7.78;2.60;;;;;;;24.00;36.17;99374.81;4483724;32;34513;-68
2021/03/13 10:37:54;;;;;;;9.68;1.85;;;;;;;23.99;36.21;99381.34;4483749;32;33867;-66
2021/03/13 10:40:41;;;;;;;8.53;2.10;;;;;;;23.98;36.19;99376.97;4483935;32;34716;-67
2021/03/13 10:43:09;;;;;;;6.68;1.85;;;;;;;23.99;36.18;99370.44;4483105;32;33396;-67
2021/03/13 10:45:36;;;;;;;8.05;1.62;;;;;;;23.97;36.25;99388.91;4483992;32;33827;-68
2021/03/13 10:48:07;;;;;;;7.47;1.75;;;;;;;23.95;36.31;99383.69;4483892;32;34987;-67
2021/03/13 10:50:35;;;;;;;5.75;1.60;;;;;;;23.93;36.33;99381.22;4483816;32;33578;-67
2021/03/13 10:53:34;;;;;;;8.65;1.67;;;;;;;23.92;36.35;99382.31;4483312;32;34044;-67
2021/03/13 10:56:05;;;;;;;7.90;2.17;;;;;;;23.94;36.29;99373.88;4483684;32;33761;-55
2021/03/13 10:58:52;;;;;;;11.65;2.03;;;;;;;23.90;36.38;99378.16;4483735;32;33866;-62
2021/03/13 11:01:20;;;;;;;7.50;1.73;;;;;;;23.90;36.38;99364.53;4483742;32;34597;-68
2021/03/13 11:03:48;;;;;;;10.13;2.03;;;;;;;23.89;36.31;99363.69;4483981;32;33311;-68
2021/03/13 11:06:32;;;;;;;9.00;1.90;;;;;;;23.89;36.31;99357.44;4483848;32;33769;-69
2021/03/13 11:09:03;;;;;;;5.97;1.70;;;;;;;23.87;36.28;99357.62;4483717;32;33974;-69
2021/03/13 11:11:30;;;;;;;7.28;2.05;;;;;;;23.84;36.33;99362.75;4483472;32;34534;-69
2021/03/13 11:13:59;;;;;;;10.38;2.08;;;;;;;23.83;36.35;99350.22;4483833;32;34104;-67
2021/03/13 11:16:26;;;;;;;8.25;1.73;;;;;;;23.82;36.35;99348.53;4483264;32;33786;-66
2021/03/13 11:18:54;;;;;;;6.35;1.67;;;;;;;23.79;36.35;99349.88;4483767;32;34746;-68
2021/03/13 11:21:22;;;;;;;5.43;1.70;;;;;;;23.78;36.34;99342.75;4483146;32;33966;-56
2021/03/13 11:23:50;;;;;;;6.20;1.80;;;;;;;23.78;36.31;99336.47;4482364;32;33445;-67
2021/03/13 11:26:21;;;;;;;6.53;1.73;;;;;;;23.76;36.31;99333.16;4482488;32;34644;-63
2021/03/13 11:28:48;;;;;;;8.50;1.67;;;;;;;23.74;36.32;99338.84;4483376;32;33838;-67
2021/03/13 11:31:18;;;;;;;9.35;1.67;;;;;;;23.74;36.32;99313.53;4483611;32;34419;-58
2021/03/13 11:33:46;;;;;;;11.35;2.47;;;;;;;23.72;36.29;99324.63;4483017;32;33350;-66
2021/03/13 11:36:13;;;;;;;5.35;1.80;;;;;;;23.71;36.28;99317.53;4482856;32;34642;-67
2021/03/13 11:38:40;;;;;;;6.65;1.67;;;;;;;23.70;36.28;99307.72;4483577;32;35005;-63
2021/03/13 11:41:09;;;;;;;9.07;1.85;;;;;;;23.68;36.22;99304.38;4483431;32;34621;-68
2021/03/13 11:43:38;;;;;;;15.60;2.50;;;;;;;23.66;36.18;99299.19;4483343;32;34098;-61
2021/03/13 11:46:06;;;;;;;6.45;1.83;;;;;;;23.66;36.20;99299.19;4483067;32;33793;-66